sensor_id;sensor_type;location;lat;lon;timestamp;P1;durP1;ratioP1;P2;durP2;ratioP2
39930;SDS011;26635;-35.248;149.138;2023-05-07T00:00:49;0.80;;;0.10;;
39930;SDS011;26635;-35.248;149.138;2023-05-07T00:03:20;0.10;;;0.10;;
39930;SDS011;26635;-35.248;149.138;2023-05-07T00:05:52;0.17;;;0.00;;
39930;SDS011;26635;-35.248;149.138;2023-05-07T00:08:26;0.30;;;0.00;;
39930;SDS011;26635;-35.248;149.138;2023-05-07T00:10:57;0.17;;;0.00;;
39930;SDS011;26635;-35.248;149.138;2023-05-07T00:13:28;0.32;;;0.10;;
39930;SDS011;26635;-35.248;149.138;2023-05-07T00:16:03;0.00;;;0.00;;
39930;SDS011;26635;-35.248;149.138;2023-05-07T00:18:35;2.40;;;0.17;;
39930;SDS011;26635;-35.248;149.138;2023-05-07T00:21:08;0.95;;;0.22;;
39930;SDS011;26635;-35.248;149.138;2023-05-07T00:23:38;0.93;;;0.20;;
39930;SDS011;26635;-35.248;149.138;2023-05-07T00:26:08;0.77;;;0.10;;
39930;SDS011;26635;-35.248;149.138;2023-05-07T00:28:39;0.98;;;0.38;;
39930;SDS011;26635;-35.248;149.138;2023-05-07T00:31:09;2.08;;;0.32;;
39930;SDS011;26635;-35.248;149.138;2023-05-07T00:33:40;0.50;;;0.10;;
39930;SDS011;26635;-35.248;149.138;2023-05-07T00:36:10;0.60;;;0.20;;
39930;SDS011;26635;-35.248;149.138;2023-05-07T00:38:40;0.22;;;0.10;;
39930;SDS011;26635;-35.248;149.138;2023-05-07T00:41:11;0.30;;;0.10;;
39930;SDS011;26635;-35.248;149.138;2023-05-07T00:43:41;0.30;;;0.00;;
39930;SDS011;26635;-35.248;149.138;2023-05-07T00:46:11;0.20;;;0.20;;
39930;SDS011;26635;-35.248;149.138;2023-05-07T00:48:43;0.00;;;0.00;;
39930;SDS011;26635;-35.248;149.138;2023-05-07T00:51:14;0.00;;;0.00;;
39930;SDS011;26635;-35.248;149.138;2023-05-07T00:53:44;0.38;;;0.10;;
39930;SDS011;26635;-35.248;149.138;2023-05-07T00:56:15;0.17;;;0.10;;
39930;SDS011;26635;-35.248;149.138;2023-05-07T00:58:46;0.40;;;0.20;;
39930;SDS011;26635;-35.248;149.138;2023-05-07T01:01:18;0.38;;;0.10;;
39930;SDS011;26635;-35.248;149.138;2023-05-07T01:03:48;0.55;;;0.10;;
39930;SDS011;26635;-35.248;149.138;2023-05-07T01:06:19;0.73;;;0.20;;
39930;SDS011;26635;-35.248;149.138;2023-05-07T01:08:52;0.60;;;0.10;;
39930;SDS011;26635;-35.248;149.138;2023-05-07T01:11:25;1.13;;;0.17;;
39930;SDS011;26635;-35.248;149.138;2023-05-07T01:13:57;0.38;;;0.10;;
39930;SDS011;26635;-35.248;149.138;2023-05-07T01:16:29;3.13;;;0.22;;
39930;SDS011;26635;-35.248;149.138;2023-05-07T01:19:01;0.28;;;0.10;;
39930;SDS011;26635;-35.248;149.138;2023-05-07T01:21:32;0.20;;;0.00;;
39930;SDS011;26635;-35.248;149.138;2023-05-07T01:24:14;0.43;;;0.38;;
39930;SDS011;26635;-35.248;149.138;2023-05-07T01:26:45;0.63;;;0.20;;
39930;SDS011;26635;-35.248;149.138;2023-05-07T01:29:15;1.77;;;0.20;;
39930;SDS011;26635;-35.248;149.138;2023-05-07T01:31:45;0.60;;;0.20;;
39930;SDS011;26635;-35.248;149.138;2023-05-07T01:34:18;0.50;;;0.10;;
39930;SDS011;26635;-35.248;149.138;2023-05-07T01:36:50;0.60;;;0.20;;
39930;SDS011;26635;-35.248;149.138;2023-05-07T01:39:27;0.15;;;0.10;;
39930;SDS011;26635;-35.248;149.138;2023-05-07T01:41:58;1.55;;;0.17;;
39930;SDS011;26635;-35.248;149.138;2023-05-07T01:44:29;1.10;;;0.30;;
39930;SDS011;26635;-35.248;149.138;2023-05-07T01:46:59;0.20;;;0.10;;
39930;SDS011;26635;-35.248;149.138;2023-05-07T01:49:31;1.77;;;0.32;;
39930;SDS011;26635;-35.248;149.138;2023-05-07T01:52:01;1.38;;;0.30;;
39930;SDS011;26635;-35.248;149.138;2023-05-07T01:54:32;0.70;;;0.20;;
39930;SDS011;26635;-35.248;149.138;2023-05-07T01:57:03;1.10;;;0.30;;
39930;SDS011;26635;-35.248;149.138;2023-05-07T01:59:33;0.98;;;0.30;;
39930;SDS011;26635;-35.248;149.138;2023-05-07T02:02:03;1.77;;;0.22;;
39930;SDS011;26635;-35.248;149.138;2023-05-07T02:04:34;0.38;;;0.20;;
39930;SDS011;26635;-35.248;149.138;2023-05-07T02:07:05;0.05;;;0.00;;
39930;SDS011;26635;-35.248;149.138;2023-05-07T02:09:35;0.82;;;0.20;;
39930;SDS011;26635;-35.248;149.138;2023-05-07T02:12:05;1.42;;;0.35;;
39930;SDS011;26635;-35.248;149.138;2023-05-07T02:14:36;0.68;;;0.30;;
39930;SDS011;26635;-35.248;149.138;2023-05-07T02:17:06;2.28;;;0.63;;
39930;SDS011;26635;-35.248;149.138;2023-05-07T02:19:37;1.58;;;1.13;;
39930;SDS011;26635;-35.248;149.138;2023-05-07T02:22:07;0.90;;;0.60;;
39930;SDS011;26635;-35.248;149.138;2023-05-07T02:24:38;0.95;;;0.40;;
39930;SDS011;26635;-35.248;149.138;2023-05-07T02:27:09;0.68;;;0.50;;
39930;SDS011;26635;-35.248;149.138;2023-05-07T02:29:39;0.95;;;0.60;;
39930;SDS011;26635;-35.248;149.138;2023-05-07T02:32:10;3.03;;;1.25;;
39930;SDS011;26635;-35.248;149.138;2023-05-07T02:34:41;4.85;;;2.10;;
39930;SDS011;26635;-35.248;149.138;2023-05-07T02:37:11;3.70;;;2.30;;
39930;SDS011;26635;-35.248;149.138;2023-05-07T02:39:42;1.08;;;0.68;;
39930;SDS011;26635;-35.248;149.138;2023-05-07T02:42:12;1.65;;;0.80;;
39930;SDS011;26635;-35.248;149.138;2023-05-07T02:44:43;1.17;;;0.60;;
39930;SDS011;26635;-35.248;149.138;2023-05-07T02:47:14;1.92;;;0.30;;
39930;SDS011;26635;-35.248;149.138;2023-05-07T02:49:45;0.60;;;0.20;;
39930;SDS011;26635;-35.248;149.138;2023-05-07T02:52:16;2.55;;;0.30;;
39930;SDS011;26635;-35.248;149.138;2023-05-07T02:54:47;0.35;;;0.10;;
39930;SDS011;26635;-35.248;149.138;2023-05-07T02:57:17;1.25;;;0.30;;
39930;SDS011;26635;-35.248;149.138;2023-05-07T02:59:47;0.63;;;0.17;;
39930;SDS011;26635;-35.248;149.138;2023-05-07T03:02:19;0.45;;;0.10;;
39930;SDS011;26635;-35.248;149.138;2023-05-07T03:04:51;0.43;;;0.10;;
39930;SDS011;26635;-35.248;149.138;2023-05-07T03:07:22;1.38;;;0.30;;
39930;SDS011;26635;-35.248;149.138;2023-05-07T03:09:52;0.63;;;0.13;;
39930;SDS011;26635;-35.248;149.138;2023-05-07T03:12:23;0.68;;;0.25;;
39930;SDS011;26635;-35.248;149.138;2023-05-07T03:14:53;0.70;;;0.30;;
39930;SDS011;26635;-35.248;149.138;2023-05-07T03:17:23;0.73;;;0.35;;
39930;SDS011;26635;-35.248;149.138;2023-05-07T03:19:54;1.08;;;0.35;;
39930;SDS011;26635;-35.248;149.138;2023-05-07T03:22:25;2.05;;;0.52;;
39930;SDS011;26635;-35.248;149.138;2023-05-07T03:24:55;2.33;;;0.35;;
39930;SDS011;26635;-35.248;149.138;2023-05-07T03:27:26;4.95;;;1.60;;
39930;SDS011;26635;-35.248;149.138;2023-05-07T03:29:56;1.02;;;0.50;;
39930;SDS011;26635;-35.248;149.138;2023-05-07T03:32:27;0.82;;;0.20;;
39930;SDS011;26635;-35.248;149.138;2023-05-07T03:34:58;0.52;;;0.20;;
39930;SDS011;26635;-35.248;149.138;2023-05-07T03:37:28;0.40;;;0.10;;
39930;SDS011;26635;-35.248;149.138;2023-05-07T03:39:58;0.10;;;0.00;;
39930;SDS011;26635;-35.248;149.138;2023-05-07T03:42:32;0.20;;;0.08;;
39930;SDS011;26635;-35.248;149.138;2023-05-07T03:45:03;0.90;;;0.10;;
39930;SDS011;26635;-35.248;149.138;2023-05-07T03:47:34;0.10;;;0.00;;
39930;SDS011;26635;-35.248;149.138;2023-05-07T03:50:05;0.15;;;0.10;;
39930;SDS011;26635;-35.248;149.138;2023-05-07T03:52:36;0.10;;;0.10;;
39930;SDS011;26635;-35.248;149.138;2023-05-07T03:55:06;0.63;;;0.10;;
39930;SDS011;26635;-35.248;149.138;2023-05-07T03:57:37;0.03;;;0.00;;
39930;SDS011;26635;-35.248;149.138;2023-05-07T04:00:08;0.75;;;0.70;;
39930;SDS011;26635;-35.248;149.138;2023-05-07T04:02:39;0.55;;;0.10;;
39930;SDS011;26635;-35.248;149.138;2023-05-07T04:05:10;0.30;;;0.17;;
39930;SDS011;26635;-35.248;149.138;2023-05-07T04:07:41;0.35;;;0.10;;
39930;SDS011;26635;-35.248;149.138;2023-05-07T04:10:13;1.08;;;0.10;;
39930;SDS011;26635;-35.248;149.138;2023-05-07T04:12:44;0.08;;;0.00;;
39930;SDS011;26635;-35.248;149.138;2023-05-07T04:15:14;1.27;;;0.10;;
39930;SDS011;26635;-35.248;149.138;2023-05-07T04:17:45;0.38;;;0.15;;
39930;SDS011;26635;-35.248;149.138;2023-05-07T04:20:16;0.00;;;0.00;;
39930;SDS011;26635;-35.248;149.138;2023-05-07T04:22:47;0.43;;;0.10;;
39930;SDS011;26635;-35.248;149.138;2023-05-07T04:25:18;2.15;;;0.38;;
39930;SDS011;26635;-35.248;149.138;2023-05-07T04:27:49;5.57;;;2.22;;
39930;SDS011;26635;-35.248;149.138;2023-05-07T04:30:24;5.78;;;2.53;;
39930;SDS011;26635;-35.248;149.138;2023-05-07T04:32:54;3.50;;;1.30;;
39930;SDS011;26635;-35.248;149.138;2023-05-07T04:35:26;2.83;;;0.70;;
39930;SDS011;26635;-35.248;149.138;2023-05-07T04:37:56;0.68;;;0.20;;
39930;SDS011;26635;-35.248;149.138;2023-05-07T04:40:27;0.90;;;0.90;;
39930;SDS011;26635;-35.248;149.138;2023-05-07T04:42:58;0.52;;;0.15;;
39930;SDS011;26635;-35.248;149.138;2023-05-07T04:45:30;0.65;;;0.20;;
39930;SDS011;26635;-35.248;149.138;2023-05-07T04:48:00;0.20;;;0.10;;
39930;SDS011;26635;-35.248;149.138;2023-05-07T04:50:31;0.20;;;0.10;;
39930;SDS011;26635;-35.248;149.138;2023-05-07T04:53:02;0.55;;;0.15;;
39930;SDS011;26635;-35.248;149.138;2023-05-07T04:55:34;1.67;;;0.20;;
39930;SDS011;26635;-35.248;149.138;2023-05-07T04:58:05;0.10;;;0.10;;
39930;SDS011;26635;-35.248;149.138;2023-05-07T05:00:37;0.75;;;0.30;;
39930;SDS011;26635;-35.248;149.138;2023-05-07T05:03:11;0.40;;;0.20;;
39930;SDS011;26635;-35.248;149.138;2023-05-07T05:05:43;2.17;;;0.30;;
39930;SDS011;26635;-35.248;149.138;2023-05-07T05:08:16;0.20;;;0.20;;
39930;SDS011;26635;-35.248;149.138;2023-05-07T05:10:51;0.43;;;0.20;;
39930;SDS011;26635;-35.248;149.138;2023-05-07T05:13:22;0.65;;;0.65;;
39930;SDS011;26635;-35.248;149.138;2023-05-07T05:15:53;1.27;;;0.10;;
39930;SDS011;26635;-35.248;149.138;2023-05-07T05:18:25;2.38;;;0.50;;
39930;SDS011;26635;-35.248;149.138;2023-05-07T05:20:57;0.77;;;0.57;;
39930;SDS011;26635;-35.248;149.138;2023-05-07T05:23:28;0.50;;;0.20;;
39930;SDS011;26635;-35.248;149.138;2023-05-07T05:26:00;1.15;;;0.30;;
39930;SDS011;26635;-35.248;149.138;2023-05-07T05:28:32;0.70;;;0.10;;
39930;SDS011;26635;-35.248;149.138;2023-05-07T05:31:04;0.75;;;0.17;;
39930;SDS011;26635;-35.248;149.138;2023-05-07T05:33:36;1.73;;;0.30;;
39930;SDS011;26635;-35.248;149.138;2023-05-07T05:36:11;0.88;;;0.30;;
39930;SDS011;26635;-35.248;149.138;2023-05-07T05:38:42;1.08;;;0.20;;
39930;SDS011;26635;-35.248;149.138;2023-05-07T05:41:14;0.98;;;0.20;;
39930;SDS011;26635;-35.248;149.138;2023-05-07T05:43:45;0.88;;;0.20;;
39930;SDS011;26635;-35.248;149.138;2023-05-07T05:46:17;0.98;;;0.28;;
39930;SDS011;26635;-35.248;149.138;2023-05-07T05:48:48;1.10;;;0.32;;
39930;SDS011;26635;-35.248;149.138;2023-05-07T05:51:20;0.60;;;0.30;;
39930;SDS011;26635;-35.248;149.138;2023-05-07T05:53:52;1.00;;;0.50;;
39930;SDS011;26635;-35.248;149.138;2023-05-07T05:56:23;1.10;;;0.50;;
39930;SDS011;26635;-35.248;149.138;2023-05-07T05:58:55;0.50;;;0.30;;
39930;SDS011;26635;-35.248;149.138;2023-05-07T06:01:27;1.38;;;0.38;;
39930;SDS011;26635;-35.248;149.138;2023-05-07T06:03:58;0.98;;;0.20;;
39930;SDS011;26635;-35.248;149.138;2023-05-07T06:06:29;1.20;;;0.30;;
39930;SDS011;26635;-35.248;149.138;2023-05-07T06:09:00;0.77;;;0.60;;
39930;SDS011;26635;-35.248;149.138;2023-05-07T06:11:32;1.20;;;0.50;;
39930;SDS011;26635;-35.248;149.138;2023-05-07T06:14:04;0.65;;;0.32;;
39930;SDS011;26635;-35.248;149.138;2023-05-07T06:16:35;0.75;;;0.40;;
39930;SDS011;26635;-35.248;149.138;2023-05-07T06:19:07;0.57;;;0.35;;
39930;SDS011;26635;-35.248;149.138;2023-05-07T06:21:38;0.47;;;0.30;;
39930;SDS011;26635;-35.248;149.138;2023-05-07T06:24:10;0.82;;;0.47;;
39930;SDS011;26635;-35.248;149.138;2023-05-07T06:26:42;0.82;;;0.32;;
39930;SDS011;26635;-35.248;149.138;2023-05-07T06:29:15;0.57;;;0.30;;
39930;SDS011;26635;-35.248;149.138;2023-05-07T06:31:46;0.40;;;0.32;;
39930;SDS011;26635;-35.248;149.138;2023-05-07T06:34:16;0.80;;;0.30;;
39930;SDS011;26635;-35.248;149.138;2023-05-07T06:36:47;0.63;;;0.40;;
39930;SDS011;26635;-35.248;149.138;2023-05-07T06:39:18;1.10;;;0.80;;
39930;SDS011;26635;-35.248;149.138;2023-05-07T06:41:49;2.08;;;0.45;;
39930;SDS011;26635;-35.248;149.138;2023-05-07T06:44:20;1.20;;;0.50;;
39930;SDS011;26635;-35.248;149.138;2023-05-07T06:46:51;1.27;;;0.40;;
39930;SDS011;26635;-35.248;149.138;2023-05-07T06:49:23;1.60;;;0.82;;
39930;SDS011;26635;-35.248;149.138;2023-05-07T06:51:53;1.20;;;0.40;;
39930;SDS011;26635;-35.248;149.138;2023-05-07T06:54:26;0.93;;;0.63;;
39930;SDS011;26635;-35.248;149.138;2023-05-07T06:56:58;0.50;;;0.32;;
39930;SDS011;26635;-35.248;149.138;2023-05-07T06:59:30;0.52;;;0.38;;
39930;SDS011;26635;-35.248;149.138;2023-05-07T07:02:00;1.10;;;0.30;;
39930;SDS011;26635;-35.248;149.138;2023-05-07T07:04:32;0.88;;;0.40;;
39930;SDS011;26635;-35.248;149.138;2023-05-07T07:07:03;1.25;;;0.45;;
39930;SDS011;26635;-35.248;149.138;2023-05-07T07:09:35;1.83;;;0.82;;
39930;SDS011;26635;-35.248;149.138;2023-05-07T07:12:06;1.33;;;0.50;;
39930;SDS011;26635;-35.248;149.138;2023-05-07T07:14:37;1.30;;;0.60;;
39930;SDS011;26635;-35.248;149.138;2023-05-07T07:17:08;1.00;;;0.50;;
39930;SDS011;26635;-35.248;149.138;2023-05-07T07:19:39;1.27;;;0.43;;
39930;SDS011;26635;-35.248;149.138;2023-05-07T07:22:10;1.45;;;0.50;;
39930;SDS011;26635;-35.248;149.138;2023-05-07T07:24:41;1.73;;;0.60;;
39930;SDS011;26635;-35.248;149.138;2023-05-07T07:27:12;0.50;;;0.40;;
39930;SDS011;26635;-35.248;149.138;2023-05-07T07:29:42;1.35;;;0.40;;
39930;SDS011;26635;-35.248;149.138;2023-05-07T07:32:14;1.67;;;0.50;;
39930;SDS011;26635;-35.248;149.138;2023-05-07T07:34:46;1.30;;;0.70;;
39930;SDS011;26635;-35.248;149.138;2023-05-07T07:37:17;2.15;;;0.82;;
39930;SDS011;26635;-35.248;149.138;2023-05-07T07:39:48;1.55;;;0.80;;
39930;SDS011;26635;-35.248;149.138;2023-05-07T07:42:19;4.47;;;1.70;;
39930;SDS011;26635;-35.248;149.138;2023-05-07T07:44:49;3.92;;;2.00;;
39930;SDS011;26635;-35.248;149.138;2023-05-07T07:47:20;7.47;;;4.47;;
39930;SDS011;26635;-35.248;149.138;2023-05-07T07:49:51;6.60;;;4.47;;
39930;SDS011;26635;-35.248;149.138;2023-05-07T07:52:21;7.72;;;4.22;;
39930;SDS011;26635;-35.248;149.138;2023-05-07T07:54:52;8.48;;;4.22;;
39930;SDS011;26635;-35.248;149.138;2023-05-07T07:57:23;4.70;;;2.28;;
39930;SDS011;26635;-35.248;149.138;2023-05-07T07:59:54;4.43;;;2.65;;
39930;SDS011;26635;-35.248;149.138;2023-05-07T08:02:25;4.40;;;3.08;;
39930;SDS011;26635;-35.248;149.138;2023-05-07T08:05:01;4.55;;;2.63;;
39930;SDS011;26635;-35.248;149.138;2023-05-07T08:07:32;3.08;;;2.22;;
39930;SDS011;26635;-35.248;149.138;2023-05-07T08:10:03;4.22;;;2.80;;
39930;SDS011;26635;-35.248;149.138;2023-05-07T08:12:34;4.72;;;2.53;;
39930;SDS011;26635;-35.248;149.138;2023-05-07T08:15:05;2.65;;;1.80;;
39930;SDS011;26635;-35.248;149.138;2023-05-07T08:17:36;3.10;;;2.00;;
39930;SDS011;26635;-35.248;149.138;2023-05-07T08:20:09;3.85;;;1.75;;
39930;SDS011;26635;-35.248;149.138;2023-05-07T08:22:40;2.08;;;1.35;;
39930;SDS011;26635;-35.248;149.138;2023-05-07T08:25:11;2.22;;;1.40;;
39930;SDS011;26635;-35.248;149.138;2023-05-07T08:27:41;2.90;;;1.73;;
39930;SDS011;26635;-35.248;149.138;2023-05-07T08:30:13;3.88;;;1.67;;
39930;SDS011;26635;-35.248;149.138;2023-05-07T08:32:44;5.10;;;1.98;;
39930;SDS011;26635;-35.248;149.138;2023-05-07T08:35:17;3.78;;;1.52;;
39930;SDS011;26635;-35.248;149.138;2023-05-07T08:37:49;4.35;;;1.55;;
39930;SDS011;26635;-35.248;149.138;2023-05-07T08:40:20;2.25;;;1.20;;
39930;SDS011;26635;-35.248;149.138;2023-05-07T08:42:54;2.65;;;1.20;;
39930;SDS011;26635;-35.248;149.138;2023-05-07T08:45:27;2.67;;;1.10;;
39930;SDS011;26635;-35.248;149.138;2023-05-07T08:48:01;4.28;;;1.73;;
39930;SDS011;26635;-35.248;149.138;2023-05-07T08:50:38;3.00;;;1.55;;
39930;SDS011;26635;-35.248;149.138;2023-05-07T08:53:12;3.70;;;1.65;;
39930;SDS011;26635;-35.248;149.138;2023-05-07T08:55:45;3.13;;;1.63;;
39930;SDS011;26635;-35.248;149.138;2023-05-07T08:58:16;3.10;;;1.40;;
39930;SDS011;26635;-35.248;149.138;2023-05-07T09:00:52;2.40;;;1.30;;
39930;SDS011;26635;-35.248;149.138;2023-05-07T09:03:23;4.20;;;1.20;;
39930;SDS011;26635;-35.248;149.138;2023-05-07T09:05:54;3.15;;;1.40;;
39930;SDS011;26635;-35.248;149.138;2023-05-07T09:08:28;2.78;;;1.90;;
39930;SDS011;26635;-35.248;149.138;2023-05-07T09:10:59;4.15;;;2.45;;
39930;SDS011;26635;-35.248;149.138;2023-05-07T09:13:31;5.00;;;3.45;;
39930;SDS011;26635;-35.248;149.138;2023-05-07T09:16:11;5.72;;;4.15;;
39930;SDS011;26635;-35.248;149.138;2023-05-07T09:18:44;6.20;;;4.22;;
39930;SDS011;26635;-35.248;149.138;2023-05-07T09:21:18;7.15;;;4.80;;
39930;SDS011;26635;-35.248;149.138;2023-05-07T09:23:57;7.85;;;5.70;;
39930;SDS011;26635;-35.248;149.138;2023-05-07T09:26:30;13.00;;;7.97;;
39930;SDS011;26635;-35.248;149.138;2023-05-07T09:29:15;12.27;;;7.45;;
39930;SDS011;26635;-35.248;149.138;2023-05-07T09:32:12;12.43;;;7.68;;
39930;SDS011;26635;-35.248;149.138;2023-05-07T09:35:16;7.53;;;5.55;;
39930;SDS011;26635;-35.248;149.138;2023-05-07T09:37:48;8.98;;;5.13;;
39930;SDS011;26635;-35.248;149.138;2023-05-07T09:40:24;7.65;;;4.95;;
39930;SDS011;26635;-35.248;149.138;2023-05-07T09:43:07;8.95;;;5.80;;
39930;SDS011;26635;-35.248;149.138;2023-05-07T09:45:42;7.38;;;6.07;;
39930;SDS011;26635;-35.248;149.138;2023-05-07T09:48:14;9.43;;;6.32;;
39930;SDS011;26635;-35.248;149.138;2023-05-07T09:50:49;11.57;;;7.72;;
39930;SDS011;26635;-35.248;149.138;2023-05-07T09:53:27;11.10;;;6.53;;
39930;SDS011;26635;-35.248;149.138;2023-05-07T09:56:00;7.70;;;5.47;;
39930;SDS011;26635;-35.248;149.138;2023-05-07T09:58:38;8.25;;;4.63;;
39930;SDS011;26635;-35.248;149.138;2023-05-07T10:01:13;5.20;;;3.38;;
39930;SDS011;26635;-35.248;149.138;2023-05-07T10:03:48;4.35;;;2.67;;
39930;SDS011;26635;-35.248;149.138;2023-05-07T10:06:24;3.58;;;2.10;;
39930;SDS011;26635;-35.248;149.138;2023-05-07T10:08:56;3.15;;;1.70;;
39930;SDS011;26635;-35.248;149.138;2023-05-07T10:11:32;2.47;;;1.65;;
39930;SDS011;26635;-35.248;149.138;2023-05-07T10:14:09;3.50;;;1.90;;
39930;SDS011;26635;-35.248;149.138;2023-05-07T10:16:57;3.45;;;2.00;;
39930;SDS011;26635;-35.248;149.138;2023-05-07T10:19:30;4.43;;;1.90;;
39930;SDS011;26635;-35.248;149.138;2023-05-07T10:22:09;6.65;;;3.47;;
39930;SDS011;26635;-35.248;149.138;2023-05-07T10:24:40;6.20;;;2.95;;
39930;SDS011;26635;-35.248;149.138;2023-05-07T10:27:14;7.65;;;4.05;;
39930;SDS011;26635;-35.248;149.138;2023-05-07T10:33:05;5.80;;;3.45;;
39930;SDS011;26635;-35.248;149.138;2023-05-07T10:35:40;4.13;;;2.08;;
39930;SDS011;26635;-35.248;149.138;2023-05-07T10:38:25;3.53;;;1.95;;
39930;SDS011;26635;-35.248;149.138;2023-05-07T10:40:59;2.50;;;1.67;;
39930;SDS011;26635;-35.248;149.138;2023-05-07T10:43:39;2.92;;;1.60;;
39930;SDS011;26635;-35.248;149.138;2023-05-07T10:46:18;3.92;;;1.52;;
39930;SDS011;26635;-35.248;149.138;2023-05-07T10:51:37;1.85;;;1.25;;
39930;SDS011;26635;-35.248;149.138;2023-05-07T10:56:41;2.13;;;1.30;;
39930;SDS011;26635;-35.248;149.138;2023-05-07T11:02:15;3.90;;;1.88;;
39930;SDS011;26635;-35.248;149.138;2023-05-07T11:08:00;2.42;;;1.63;;
39930;SDS011;26635;-35.248;149.138;2023-05-07T11:10:49;2.85;;;1.55;;
39930;SDS011;26635;-35.248;149.138;2023-05-07T11:13:42;4.30;;;1.83;;
39930;SDS011;26635;-35.248;149.138;2023-05-07T11:18:51;4.15;;;2.65;;
39930;SDS011;26635;-35.248;149.138;2023-05-07T11:21:37;5.35;;;3.35;;
39930;SDS011;26635;-35.248;149.138;2023-05-07T11:24:23;4.28;;;2.72;;
39930;SDS011;26635;-35.248;149.138;2023-05-07T11:26:56;4.18;;;2.40;;
39930;SDS011;26635;-35.248;149.138;2023-05-07T11:29:27;3.85;;;2.90;;
39930;SDS011;26635;-35.248;149.138;2023-05-07T11:32:00;3.97;;;3.20;;
39930;SDS011;26635;-35.248;149.138;2023-05-07T11:34:33;3.42;;;2.45;;
39930;SDS011;26635;-35.248;149.138;2023-05-07T11:37:04;3.20;;;2.20;;
39930;SDS011;26635;-35.248;149.138;2023-05-07T11:45:22;1.67;;;1.10;;
39930;SDS011;26635;-35.248;149.138;2023-05-07T11:47:58;2.38;;;1.40;;
39930;SDS011;26635;-35.248;149.138;2023-05-07T11:50:33;3.63;;;1.48;;
39930;SDS011;26635;-35.248;149.138;2023-05-07T11:53:07;4.82;;;1.75;;
39930;SDS011;26635;-35.248;149.138;2023-05-07T11:55:40;4.47;;;1.40;;
39930;SDS011;26635;-35.248;149.138;2023-05-07T11:58:12;4.38;;;1.70;;
39930;SDS011;26635;-35.248;149.138;2023-05-07T12:00:51;3.03;;;1.60;;
39930;SDS011;26635;-35.248;149.138;2023-05-07T12:03:28;5.13;;;1.80;;
39930;SDS011;26635;-35.248;149.138;2023-05-07T12:06:05;3.05;;;1.27;;
39930;SDS011;26635;-35.248;149.138;2023-05-07T12:08:37;2.92;;;1.15;;
39930;SDS011;26635;-35.248;149.138;2023-05-07T12:11:25;1.70;;;0.60;;
39930;SDS011;26635;-35.248;149.138;2023-05-07T12:13:58;2.33;;;0.98;;
39930;SDS011;26635;-35.248;149.138;2023-05-07T12:16:38;1.77;;;0.97;;
39930;SDS011;26635;-35.248;149.138;2023-05-07T12:19:11;1.52;;;0.93;;
39930;SDS011;26635;-35.248;149.138;2023-05-07T12:21:42;2.13;;;1.00;;
39930;SDS011;26635;-35.248;149.138;2023-05-07T12:24:16;1.48;;;0.80;;
39930;SDS011;26635;-35.248;149.138;2023-05-07T12:29:32;2.58;;;1.00;;
39930;SDS011;26635;-35.248;149.138;2023-05-07T12:32:03;1.23;;;0.80;;
39930;SDS011;26635;-35.248;149.138;2023-05-07T12:34:36;3.63;;;0.77;;
39930;SDS011;26635;-35.248;149.138;2023-05-07T12:37:12;2.00;;;0.63;;
39930;SDS011;26635;-35.248;149.138;2023-05-07T12:39:47;1.00;;;0.40;;
39930;SDS011;26635;-35.248;149.138;2023-05-07T12:42:20;1.40;;;0.80;;
39930;SDS011;26635;-35.248;149.138;2023-05-07T12:44:56;0.85;;;0.60;;
39930;SDS011;26635;-35.248;149.138;2023-05-07T12:47:27;2.05;;;0.40;;
39930;SDS011;26635;-35.248;149.138;2023-05-07T12:49:59;1.10;;;0.43;;
39930;SDS011;26635;-35.248;149.138;2023-05-07T12:52:30;0.68;;;0.20;;
39930;SDS011;26635;-35.248;149.138;2023-05-07T12:55:05;0.73;;;0.40;;
39930;SDS011;26635;-35.248;149.138;2023-05-07T12:57:39;1.60;;;0.60;;
39930;SDS011;26635;-35.248;149.138;2023-05-07T13:02:51;0.83;;;0.30;;
39930;SDS011;26635;-35.248;149.138;2023-05-07T13:05:25;0.70;;;0.47;;
39930;SDS011;26635;-35.248;149.138;2023-05-07T13:07:56;0.37;;;0.30;;
39930;SDS011;26635;-35.248;149.138;2023-05-07T13:10:29;0.88;;;0.40;;
39930;SDS011;26635;-35.248;149.138;2023-05-07T13:13:01;1.85;;;0.70;;
39930;SDS011;26635;-35.248;149.138;2023-05-07T13:15:32;1.23;;;0.50;;
39930;SDS011;26635;-35.248;149.138;2023-05-07T13:18:03;1.15;;;0.50;;
39930;SDS011;26635;-35.248;149.138;2023-05-07T13:20:35;1.48;;;0.32;;
39930;SDS011;26635;-35.248;149.138;2023-05-07T13:23:07;1.87;;;0.20;;
39930;SDS011;26635;-35.248;149.138;2023-05-07T13:25:37;3.10;;;0.50;;
39930;SDS011;26635;-35.248;149.138;2023-05-07T13:28:08;1.40;;;0.30;;
39930;SDS011;26635;-35.248;149.138;2023-05-07T13:30:39;5.35;;;2.00;;
39930;SDS011;26635;-35.248;149.138;2023-05-07T13:33:12;0.53;;;0.23;;
39930;SDS011;26635;-35.248;149.138;2023-05-07T13:35:42;1.02;;;0.40;;
39930;SDS011;26635;-35.248;149.138;2023-05-07T13:38:12;0.40;;;0.27;;
39930;SDS011;26635;-35.248;149.138;2023-05-07T13:40:54;1.50;;;0.10;;
39930;SDS011;26635;-35.248;149.138;2023-05-07T13:43:24;3.60;;;0.30;;
39930;SDS011;26635;-35.248;149.138;2023-05-07T13:45:54;2.43;;;0.20;;
39930;SDS011;26635;-35.248;149.138;2023-05-07T13:48:25;0.63;;;0.17;;
39930;SDS011;26635;-35.248;149.138;2023-05-07T13:50:56;0.83;;;0.20;;
39930;SDS011;26635;-35.248;149.138;2023-05-07T13:53:27;2.70;;;0.27;;
39930;SDS011;26635;-35.248;149.138;2023-05-07T13:56:01;0.47;;;0.20;;
39930;SDS011;26635;-35.248;149.138;2023-05-07T13:58:33;0.47;;;0.20;;
39930;SDS011;26635;-35.248;149.138;2023-05-07T14:01:24;0.70;;;0.20;;
39930;SDS011;26635;-35.248;149.138;2023-05-07T14:03:55;0.53;;;0.10;;
39930;SDS011;26635;-35.248;149.138;2023-05-07T14:06:29;0.70;;;0.20;;
39930;SDS011;26635;-35.248;149.138;2023-05-07T14:08:59;1.60;;;0.10;;
39930;SDS011;26635;-35.248;149.138;2023-05-07T14:11:30;1.20;;;0.20;;
39930;SDS011;26635;-35.248;149.138;2023-05-07T14:14:02;1.17;;;0.30;;
39930;SDS011;26635;-35.248;149.138;2023-05-07T14:16:32;1.17;;;0.40;;
39930;SDS011;26635;-35.248;149.138;2023-05-07T14:19:02;0.87;;;0.33;;
39930;SDS011;26635;-35.248;149.138;2023-05-07T14:21:33;0.70;;;0.30;;
39930;SDS011;26635;-35.248;149.138;2023-05-07T14:24:04;1.03;;;0.37;;
39930;SDS011;26635;-35.248;149.138;2023-05-07T14:26:36;2.03;;;0.47;;
39930;SDS011;26635;-35.248;149.138;2023-05-07T14:29:06;1.25;;;0.55;;
39930;SDS011;26635;-35.248;149.138;2023-05-07T14:31:38;3.47;;;1.63;;
39930;SDS011;26635;-35.248;149.138;2023-05-07T14:34:08;6.87;;;3.40;;
39930;SDS011;26635;-35.248;149.138;2023-05-07T14:36:39;6.13;;;3.45;;
39930;SDS011;26635;-35.248;149.138;2023-05-07T14:39:09;6.13;;;3.40;;
39930;SDS011;26635;-35.248;149.138;2023-05-07T14:41:40;6.43;;;3.33;;
39930;SDS011;26635;-35.248;149.138;2023-05-07T14:44:11;9.40;;;3.20;;
39930;SDS011;26635;-35.248;149.138;2023-05-07T14:46:41;4.70;;;3.17;;
39930;SDS011;26635;-35.248;149.138;2023-05-07T14:49:11;2.80;;;1.27;;
39930;SDS011;26635;-35.248;149.138;2023-05-07T14:51:46;2.57;;;0.90;;
39930;SDS011;26635;-35.248;149.138;2023-05-07T14:54:17;3.20;;;0.70;;
39930;SDS011;26635;-35.248;149.138;2023-05-07T14:56:48;3.33;;;1.63;;
39930;SDS011;26635;-35.248;149.138;2023-05-07T14:59:19;3.37;;;1.50;;
39930;SDS011;26635;-35.248;149.138;2023-05-07T15:01:49;4.47;;;1.60;;
39930;SDS011;26635;-35.248;149.138;2023-05-07T15:04:20;5.60;;;1.93;;
39930;SDS011;26635;-35.248;149.138;2023-05-07T15:06:50;5.80;;;2.80;;